createdAt,value
2019-02-25T00:00:07.540Z,40.50
2019-02-25T00:02:40.689Z,45.27
2019-02-25T00:05:15.009Z,41.53
2019-02-25T00:07:46.647Z,41.07
2019-02-25T00:10:18.338Z,39.77
2019-02-25T00:12:49.907Z,38.17
2019-02-25T00:15:21.546Z,39.23
2019-02-25T00:17:53.191Z,40.30
2019-02-25T00:20:24.627Z,44.53
2019-02-25T00:22:56.133Z,45.00
2019-02-25T00:25:27.800Z,43.20
2019-02-25T00:27:59.311Z,47.30
2019-02-25T00:30:30.800Z,55.37
2019-02-25T00:33:02.311Z,59.30
2019-02-25T00:35:33.806Z,50.30
2019-02-25T00:38:05.285Z,44.67
2019-02-25T00:40:36.870Z,49.00
2019-02-25T00:43:08.389Z,43.70
2019-02-25T00:45:39.916Z,58.23
2019-02-25T00:48:11.666Z,45.57
2019-02-25T00:50:43.176Z,54.40
2019-02-25T00:53:14.621Z,45.17
2019-02-25T00:55:46.176Z,44.70
2019-02-25T00:58:17.662Z,40.60
2019-02-25T01:00:49.526Z,43.50
2019-02-25T01:03:20.969Z,42.13
2019-02-25T01:05:52.494Z,40.50
2019-02-25T01:08:24.096Z,39.00
2019-02-25T01:10:55.581Z,46.23
2019-02-25T01:13:27.106Z,41.33
2019-02-25T01:15:58.577Z,36.20
2019-02-25T01:18:30.092Z,44.10
2019-02-25T01:21:01.585Z,42.00
2019-02-25T01:23:33.118Z,39.33
2019-02-25T01:26:04.558Z,42.33
2019-02-25T01:28:36.044Z,41.00
2019-02-25T01:31:07.533Z,40.03
2019-02-25T01:33:39.229Z,40.23
2019-02-25T01:36:10.677Z,39.30
2019-02-25T01:38:43.666Z,37.13
2019-02-25T01:41:15.182Z,39.90
2019-02-25T01:43:46.670Z,40.63
2019-02-25T01:46:18.124Z,44.13
2019-02-25T01:48:49.673Z,37.37
2019-02-25T01:51:22.146Z,40.47
2019-02-25T01:53:53.795Z,42.47
2019-02-25T01:56:25.464Z,41.57
2019-02-25T01:58:56.884Z,45.30
2019-02-25T02:01:28.308Z,38.83
2019-02-25T02:03:59.887Z,40.57
2019-02-25T02:06:31.445Z,41.73
2019-02-25T02:09:02.998Z,38.40
2019-02-25T02:11:36.082Z,39.63
2019-02-25T02:14:07.638Z,48.30
2019-02-25T02:16:39.099Z,45.67
2019-02-25T02:19:10.630Z,39.47
2019-02-25T02:21:42.102Z,41.50
2019-02-25T02:24:13.582Z,39.00
2019-02-25T02:26:45.243Z,39.20
2019-02-25T02:29:16.756Z,42.60
2019-02-25T02:31:48.201Z,42.97
2019-02-25T02:34:19.704Z,38.53
2019-02-25T02:36:51.144Z,37.57
2019-02-25T02:39:22.668Z,46.23
2019-02-25T02:42:31.142Z,42.00
2019-02-25T02:45:15.912Z,63.07
2019-02-25T02:48:01.685Z,44.03
2019-02-25T02:50:34.252Z,39.40
2019-02-25T02:53:05.730Z,40.70
2019-02-25T02:55:37.256Z,43.57
2019-02-25T02:58:08.757Z,43.33
2019-02-25T03:00:40.303Z,39.00
2019-02-25T03:03:11.872Z,36.47
2019-02-25T03:05:43.432Z,38.53
2019-02-25T03:08:15.080Z,39.30
2019-02-25T03:10:46.570Z,40.83
2019-02-25T03:13:19.911Z,40.43
2019-02-25T03:15:51.412Z,51.40
2019-02-25T03:18:22.855Z,40.50
2019-02-25T03:20:58.076Z,40.83
2019-02-25T03:23:31.158Z,38.53
2019-02-25T03:26:05.830Z,45.10
2019-02-25T03:28:37.718Z,46.57
2019-02-25T03:31:11.136Z,49.80
2019-02-25T03:33:42.662Z,45.70
2019-02-25T03:36:15.656Z,42.77
2019-02-25T03:38:47.244Z,48.87
2019-02-25T03:41:18.773Z,46.00
2019-02-25T03:43:50.407Z,45.80
2019-02-25T03:46:22.021Z,43.20
2019-02-25T03:48:53.536Z,46.27
2019-02-25T03:51:25.055Z,43.87
2019-02-25T03:53:56.540Z,44.20
2019-02-25T03:56:28.104Z,44.27
2019-02-25T03:58:59.551Z,43.50
2019-02-25T04:01:31.035Z,46.10
2019-02-25T04:04:02.555Z,44.13
2019-02-25T04:06:34.033Z,52.77
2019-02-25T04:09:06.519Z,47.33
2019-02-25T04:11:38.092Z,49.73
2019-02-25T04:14:09.564Z,47.73
2019-02-25T04:16:41.078Z,52.50
2019-02-25T04:19:12.510Z,45.43
2019-02-25T04:21:43.984Z,41.73
2019-02-25T04:24:15.452Z,54.93
2019-02-25T04:26:46.947Z,54.63
2019-02-25T04:29:18.401Z,52.77
2019-02-25T04:31:49.883Z,44.70
2019-02-25T04:34:21.336Z,50.50
2019-02-25T04:36:52.837Z,44.40
2019-02-25T04:39:24.409Z,54.23
2019-02-25T04:41:55.923Z,48.60
2019-02-25T04:44:27.429Z,45.83
2019-02-25T04:46:58.961Z,46.57
2019-02-25T04:49:30.615Z,52.67
2019-02-25T04:52:02.279Z,46.77
2019-02-25T04:54:33.912Z,45.37
2019-02-25T04:57:05.478Z,45.50
2019-02-25T04:59:37.028Z,51.37
2019-02-25T05:02:08.525Z,52.17
2019-02-25T05:04:41.790Z,48.77
2019-02-25T05:07:13.295Z,44.47
2019-02-25T05:09:44.738Z,50.23
2019-02-25T05:12:16.229Z,45.30
2019-02-25T05:14:47.674Z,45.23
2019-02-25T05:17:19.154Z,51.83
2019-02-25T05:19:50.603Z,47.37
2019-02-25T05:22:23.171Z,48.33
2019-02-25T05:24:54.645Z,46.70
2019-02-25T05:27:26.147Z,46.37
2019-02-25T05:29:57.609Z,43.37
2019-02-25T05:32:29.087Z,54.93
2019-02-25T05:35:00.530Z,49.93
2019-02-25T05:37:32.012Z,47.77
2019-02-25T05:40:06.945Z,53.90
2019-02-25T05:42:38.466Z,54.47
2019-02-25T05:45:10.432Z,47.20
2019-02-25T05:47:41.990Z,43.43
2019-02-25T05:50:14.826Z,49.67
2019-02-25T05:52:46.415Z,44.43
2019-02-25T05:55:17.907Z,48.63
2019-02-25T05:57:49.482Z,48.13
2019-02-25T06:00:23.825Z,50.20
2019-02-25T06:02:55.377Z,44.00
2019-02-25T06:05:26.837Z,47.37
2019-02-25T06:08:00.218Z,54.07
2019-02-25T06:10:31.813Z,51.50
2019-02-25T06:13:03.287Z,49.27
2019-02-25T06:15:34.920Z,43.20
2019-02-25T06:18:06.523Z,58.37
2019-02-25T06:20:37.981Z,59.50
2019-02-25T06:23:09.476Z,49.77
2019-02-25T06:25:41.074Z,54.23
2019-02-25T06:28:12.564Z,59.53
2019-02-25T06:30:44.278Z,42.30
2019-02-25T06:33:15.856Z,42.80
2019-02-25T06:35:47.338Z,48.03
2019-02-25T06:38:19.057Z,52.07
2019-02-25T06:40:50.536Z,45.27
2019-02-25T06:43:22.154Z,50.67
2019-02-25T06:45:53.643Z,48.67
2019-02-25T06:48:25.140Z,53.77
2019-02-25T06:50:59.458Z,48.60
2019-02-25T06:53:30.922Z,58.90
2019-02-25T06:56:02.441Z,45.57
2019-02-25T06:58:33.924Z,46.50
2019-02-25T07:01:05.454Z,49.20
2019-02-25T07:03:37.004Z,50.40
2019-02-25T07:06:27.447Z,51.67
2019-02-25T07:09:07.861Z,55.57
2019-02-25T07:11:44.912Z,51.70
2019-02-25T07:14:34.262Z,48.43
2019-02-25T07:17:22.738Z,64.73
2019-02-25T07:20:16.176Z,50.13
2019-02-25T07:22:54.549Z,58.73
2019-02-25T07:25:51.092Z,48.70
2019-02-25T07:28:47.789Z,57.23
2019-02-25T07:31:50.205Z,49.83
2019-02-25T07:34:43.439Z,48.33
2019-02-25T07:37:32.782Z,52.60
2019-02-25T07:40:14.654Z,54.63
2019-02-25T07:42:55.391Z,44.20
2019-02-25T07:46:04.046Z,46.27
2019-02-25T07:49:00.096Z,47.93
2019-02-25T07:51:37.180Z,47.53
2019-02-25T07:54:30.794Z,50.77
2019-02-25T07:57:38.256Z,45.80
2019-02-25T08:00:25.439Z,45.37
2019-02-25T08:03:17.025Z,50.03
2019-02-25T08:06:26.657Z,41.10
2019-02-25T08:09:16.832Z,47.87
2019-02-25T08:12:23.214Z,40.73
2019-02-25T08:15:12.656Z,41.10
2019-02-25T08:18:02.323Z,41.93
2019-02-25T08:20:43.337Z,44.77
2019-02-25T08:23:36.595Z,41.77
2019-02-25T08:26:33.350Z,48.73
2019-02-25T08:29:24.655Z,42.93
2019-02-25T08:32:15.125Z,56.30
2019-02-25T08:35:08.276Z,40.53
2019-02-25T08:37:58.595Z,50.50
2019-02-25T08:41:20.540Z,42.67
2019-02-25T08:44:01.296Z,41.47
2019-02-25T08:46:53.843Z,47.43
2019-02-25T08:49:31.735Z,50.00
2019-02-25T08:52:04.082Z,42.63
2019-02-25T08:54:35.722Z,33.87
2019-02-25T08:57:07.631Z,44.63
2019-02-25T08:59:39.302Z,39.53
2019-02-25T09:02:14.344Z,39.70
2019-02-25T09:04:45.858Z,39.33
2019-02-25T09:07:17.436Z,36.80
2019-02-25T09:09:48.962Z,41.23
2019-02-25T09:12:20.535Z,40.03
2019-02-25T09:14:52.007Z,38.03
2019-02-25T09:17:23.501Z,40.23
2019-02-25T09:19:54.989Z,39.87
2019-02-25T09:22:26.510Z,33.90
2019-02-25T09:24:57.982Z,37.97
2019-02-25T09:27:30.050Z,50.70
2019-02-25T09:30:01.509Z,37.83
2019-02-25T09:32:40.338Z,44.97
2019-02-25T09:35:12.225Z,45.63
2019-02-25T09:37:44.252Z,39.93
2019-02-25T09:40:16.712Z,48.50
2019-02-25T09:42:48.427Z,47.70
2019-02-25T09:45:20.110Z,41.40
2019-02-25T09:47:51.709Z,44.80
2019-02-25T09:50:23.228Z,42.00
2019-02-25T09:52:54.828Z,40.90
2019-02-25T09:55:32.695Z,37.93
2019-02-25T09:58:05.727Z,58.20
2019-02-25T10:00:37.288Z,39.13
2019-02-25T10:03:10.106Z,33.17
2019-02-25T10:05:41.731Z,40.63
2019-02-25T10:08:14.339Z,44.30
2019-02-25T10:10:45.905Z,37.87
2019-02-25T10:13:18.735Z,43.00
2019-02-25T10:15:51.001Z,35.87
2019-02-25T10:18:22.751Z,40.47
2019-02-25T10:20:54.354Z,43.23
2019-02-25T10:23:26.237Z,44.43
2019-02-25T10:25:57.691Z,36.33
2019-02-25T10:28:29.177Z,39.87
2019-02-25T10:31:00.633Z,37.57
2019-02-25T10:33:32.447Z,39.20
2019-02-25T10:36:03.897Z,45.17
2019-02-25T10:38:37.463Z,43.10
2019-02-25T10:41:08.639Z,35.67
2019-02-25T10:43:40.133Z,36.57
2019-02-25T10:46:13.853Z,40.80
2019-02-25T10:48:45.141Z,46.13
2019-02-25T10:51:16.694Z,39.77
2019-02-25T10:53:49.969Z,39.77
2019-02-25T10:56:41.301Z,36.77
2019-02-25T10:59:12.899Z,39.97
2019-02-25T11:01:45.894Z,37.10
2019-02-25T11:04:20.090Z,42.10
2019-02-25T11:06:52.353Z,45.03
2019-02-25T11:09:50.354Z,38.27
2019-02-25T11:12:23.623Z,35.80
2019-02-25T11:14:55.122Z,39.57
2019-02-25T11:17:26.607Z,47.57
2019-02-25T11:19:58.658Z,40.13
2019-02-25T11:22:31.506Z,39.70
2019-02-25T11:25:03.115Z,40.43
2019-02-25T11:27:35.871Z,46.33
2019-02-25T11:30:10.228Z,36.33
2019-02-25T11:32:42.863Z,44.27
2019-02-25T11:35:15.278Z,50.33
2019-02-25T11:37:46.797Z,37.20
2019-02-25T11:40:18.498Z,55.00
2019-02-25T11:42:50.097Z,45.90
2019-02-25T11:45:25.613Z,34.50
2019-02-25T11:47:57.124Z,44.87
2019-02-25T11:50:28.619Z,47.03
2019-02-25T11:53:00.151Z,42.40
2019-02-25T11:55:31.848Z,39.20
2019-02-25T11:58:05.494Z,43.17
2019-02-25T12:00:37.220Z,37.13
2019-02-25T12:03:09.051Z,37.53
2019-02-25T12:05:40.662Z,41.23
2019-02-25T12:08:12.220Z,37.73
2019-02-25T12:10:43.886Z,46.10
2019-02-25T12:13:15.429Z,36.93
2019-02-25T12:15:46.990Z,33.47
2019-02-25T12:18:18.539Z,37.93
2019-02-25T12:20:50.061Z,34.83
2019-02-25T12:23:21.554Z,33.43
2019-02-25T12:25:57.245Z,29.53
2019-02-25T12:28:28.778Z,36.90
2019-02-25T12:31:00.285Z,35.87
2019-02-25T12:33:31.780Z,36.10
2019-02-25T12:36:03.310Z,37.93
2019-02-25T12:38:34.795Z,38.60
2019-02-25T12:41:08.717Z,30.00
2019-02-25T12:43:40.369Z,32.73
2019-02-25T12:46:12.060Z,37.93
2019-02-25T12:48:46.448Z,31.70
2019-02-25T12:51:19.844Z,27.60
2019-02-25T12:53:51.463Z,29.27
2019-02-25T12:56:23.202Z,29.07
2019-02-25T12:58:54.744Z,31.30
2019-02-25T13:01:26.242Z,31.47
2019-02-25T13:03:57.683Z,34.40
2019-02-25T13:06:29.188Z,30.03
2019-02-25T13:09:00.752Z,20.73
2019-02-25T13:11:33.926Z,22.77
2019-02-25T13:14:05.416Z,24.30
2019-02-25T13:16:36.981Z,25.13
2019-02-25T13:19:08.553Z,20.20
2019-02-25T13:21:40.019Z,21.80
2019-02-25T13:24:11.615Z,21.13
2019-02-25T13:26:43.122Z,16.87
2019-02-25T13:29:14.603Z,21.77
2019-02-25T13:31:46.140Z,23.63
2019-02-25T13:34:17.672Z,27.67
2019-02-25T13:36:49.265Z,26.67
2019-02-25T13:39:20.839Z,24.00
2019-02-25T13:41:52.527Z,22.93
2019-02-25T13:44:24.191Z,21.53
2019-02-25T13:46:55.937Z,24.37
2019-02-25T13:49:27.606Z,26.60
2019-02-25T13:51:59.697Z,18.20
2019-02-25T13:54:31.561Z,21.73
2019-02-25T13:57:05.444Z,24.30
2019-02-25T13:59:37.953Z,20.97
2019-02-25T14:02:09.493Z,20.77
2019-02-25T14:04:41.057Z,20.57
2019-02-25T14:07:12.661Z,18.90
2019-02-25T14:09:44.201Z,19.43
2019-02-25T14:12:15.835Z,18.63
2019-02-25T14:14:47.479Z,21.63
2019-02-25T14:17:23.740Z,22.63
2019-02-25T14:19:56.293Z,17.13
2019-02-25T14:22:29.428Z,18.10
2019-02-25T14:25:03.622Z,20.43
2019-02-25T14:27:35.816Z,18.80
2019-02-25T14:30:12.713Z,18.80
2019-02-25T14:32:44.828Z,18.63
2019-02-25T14:35:18.060Z,19.73
2019-02-25T14:37:50.886Z,23.43
2019-02-25T14:40:23.867Z,19.70
2019-02-25T14:43:17.257Z,19.43
2019-02-25T14:45:51.816Z,23.00
2019-02-25T14:48:22.990Z,22.30
2019-02-25T14:50:55.261Z,21.13
2019-02-25T14:53:26.951Z,23.60
2019-02-25T14:56:03.477Z,23.20
2019-02-25T14:58:35.698Z,22.37
2019-02-25T15:01:09.180Z,26.70
2019-02-25T15:03:40.863Z,25.27
2019-02-25T15:06:12.618Z,25.43
2019-02-25T15:08:46.379Z,23.80
2019-02-25T15:11:18.029Z,31.50
2019-02-25T15:13:50.855Z,27.73
2019-02-25T15:16:22.343Z,23.70
2019-02-25T15:18:58.606Z,27.07
2019-02-25T15:21:30.255Z,28.20
2019-02-25T15:24:04.001Z,29.90
2019-02-25T15:26:42.694Z,26.97
2019-02-25T15:29:11.814Z,24.90
2019-02-25T15:31:46.421Z,21.97
2019-02-25T15:34:19.778Z,22.90
2019-02-25T15:36:51.355Z,24.97
2019-02-25T15:39:23.514Z,22.97
2019-02-25T15:41:56.439Z,24.50
2019-02-25T15:44:28.030Z,25.97
2019-02-25T15:47:00.209Z,25.13
2019-02-25T15:49:33.186Z,26.67
2019-02-25T15:52:04.675Z,25.17
2019-02-25T15:54:37.256Z,26.27
2019-02-25T15:57:09.578Z,25.70
2019-02-25T15:59:41.145Z,23.03
2019-02-25T16:02:14.243Z,28.30
2019-02-25T16:04:48.343Z,27.23
2019-02-25T16:07:23.688Z,25.97
2019-02-25T16:09:57.114Z,26.57
2019-02-25T16:12:31.095Z,22.60
2019-02-25T16:15:02.522Z,25.73
2019-02-25T16:17:35.165Z,26.47
2019-02-25T16:20:09.118Z,28.63
2019-02-25T16:22:41.015Z,25.37
2019-02-25T16:25:15.869Z,35.97
2019-02-25T16:27:50.031Z,30.33
2019-02-25T16:30:23.578Z,32.63
2019-02-25T16:32:55.443Z,27.10
2019-02-25T16:35:27.047Z,31.17
2019-02-25T16:38:02.773Z,29.77
2019-02-25T16:40:38.373Z,27.30
2019-02-25T16:43:10.485Z,33.30
2019-02-25T16:45:43.946Z,28.23
2019-02-25T16:48:17.298Z,37.47
2019-02-25T16:50:49.949Z,32.87
2019-02-25T16:53:21.456Z,34.97
2019-02-25T16:55:53.534Z,28.90
2019-02-25T16:58:25.960Z,30.10
2019-02-25T17:01:01.205Z,40.83
2019-02-25T17:03:34.810Z,28.93
2019-02-25T17:06:07.392Z,30.80
2019-02-25T17:08:39.844Z,35.63
2019-02-25T17:11:12.924Z,37.97
2019-02-25T17:13:52.900Z,33.03
2019-02-25T17:16:24.464Z,35.23
2019-02-25T17:19:15.438Z,30.70
2019-02-25T17:21:47.049Z,34.43
2019-02-25T17:24:18.619Z,34.23
2019-02-25T17:26:50.240Z,37.43
2019-02-25T17:29:23.108Z,31.40
2019-02-25T17:31:56.939Z,34.60
2019-02-25T17:34:28.556Z,36.90
2019-02-25T17:37:00.605Z,40.30
2019-02-25T17:39:33.828Z,34.23
2019-02-25T17:42:08.153Z,38.13
2019-02-25T17:44:39.853Z,40.13
2019-02-25T17:47:13.275Z,35.70
2019-02-25T17:49:44.733Z,36.30
2019-02-25T17:52:18.401Z,36.43
2019-02-25T17:54:49.706Z,35.97
2019-02-25T17:57:21.433Z,37.37
2019-02-25T17:59:53.176Z,34.93
2019-02-25T18:02:26.153Z,39.57
2019-02-25T18:04:57.950Z,38.63
2019-02-25T18:07:29.990Z,43.70
2019-02-25T18:10:03.527Z,46.13
2019-02-25T18:12:38.636Z,41.60
2019-02-25T18:15:15.081Z,40.73
2019-02-25T18:17:47.720Z,39.10
2019-02-25T18:20:21.438Z,38.90
2019-02-25T18:22:53.333Z,42.23
2019-02-25T18:25:31.050Z,40.27
2019-02-25T18:28:04.421Z,39.00
2019-02-25T18:30:35.896Z,42.57
2019-02-25T18:33:08.118Z,50.70
2019-02-25T18:35:41.631Z,37.20
2019-02-25T18:38:13.567Z,41.93
2019-02-25T18:40:46.282Z,41.10
2019-02-25T18:43:20.061Z,39.30
2019-02-25T18:45:51.846Z,37.77
2019-02-25T18:48:25.343Z,36.87
2019-02-25T18:50:59.594Z,46.57
2019-02-25T18:53:32.552Z,37.43
2019-02-25T18:56:04.636Z,40.67
2019-02-25T18:58:37.549Z,38.93
2019-02-25T19:01:11.321Z,42.73
2019-02-25T19:03:43.375Z,38.20
2019-02-25T19:06:17.070Z,41.63
2019-02-25T19:08:49.861Z,41.20
2019-02-25T19:11:23.611Z,41.10
2019-02-25T19:13:56.732Z,42.10
2019-02-25T19:16:29.217Z,41.50
2019-02-25T19:19:04.003Z,40.07
2019-02-25T19:21:34.792Z,40.13
2019-02-25T19:24:07.616Z,44.80
2019-02-25T19:26:42.019Z,41.47
2019-02-25T19:29:15.297Z,41.50
2019-02-25T19:31:52.755Z,40.70
2019-02-25T19:34:24.773Z,43.00
2019-02-25T19:37:00.288Z,59.57
2019-02-25T19:39:29.953Z,40.80
2019-02-25T19:42:01.916Z,45.50
2019-02-25T19:44:34.348Z,45.00
2019-02-25T19:47:07.981Z,48.07
2019-02-25T19:49:41.329Z,45.83
2019-02-25T19:52:14.780Z,42.97
2019-02-25T19:54:48.834Z,49.67
2019-02-25T19:57:23.671Z,42.13
2019-02-25T19:59:57.825Z,42.57
2019-02-25T20:02:32.079Z,45.00
2019-02-25T20:05:04.693Z,44.37
2019-02-25T20:07:37.840Z,46.27
2019-02-25T20:10:11.605Z,44.93
2019-02-25T20:12:44.110Z,45.43
2019-02-25T20:15:20.330Z,46.10
2019-02-25T20:17:53.317Z,50.83
2019-02-25T20:20:28.662Z,45.77
2019-02-25T20:23:01.698Z,39.87
2019-02-25T20:25:33.800Z,48.87
2019-02-25T20:28:05.658Z,42.70
2019-02-25T20:30:37.365Z,47.47
2019-02-25T20:33:10.753Z,45.63
2019-02-25T20:35:44.982Z,44.77
2019-02-25T20:38:16.246Z,43.40
2019-02-25T20:40:50.812Z,42.63
2019-02-25T20:43:23.518Z,45.27
2019-02-25T20:45:56.436Z,43.33
2019-02-25T20:48:28.283Z,42.47
2019-02-25T20:51:04.244Z,46.10
2019-02-25T20:53:37.777Z,45.23
2019-02-25T20:56:09.778Z,48.53
2019-02-25T20:58:43.032Z,48.90
2019-02-25T21:01:16.331Z,45.97
2019-02-25T21:03:48.641Z,44.23
2019-02-25T21:06:23.533Z,53.33
2019-02-25T21:08:55.226Z,49.60
2019-02-25T21:11:26.902Z,47.70
2019-02-25T21:13:58.466Z,44.50
2019-02-25T21:16:33.107Z,45.57
2019-02-25T21:19:08.050Z,48.30
2019-02-25T21:21:40.271Z,50.20
2019-02-25T21:24:13.566Z,44.47
2019-02-25T21:26:45.444Z,50.47
2019-02-25T21:29:16.986Z,50.07
2019-02-25T21:31:50.076Z,48.23
2019-02-25T21:34:24.448Z,45.70
2019-02-25T21:36:56.712Z,48.70
2019-02-25T21:39:29.334Z,49.97
2019-02-25T21:42:00.927Z,51.83
2019-02-25T21:44:32.787Z,51.47
2019-02-25T21:47:06.347Z,54.10
2019-02-25T21:49:38.748Z,50.27
2019-02-25T21:52:13.622Z,50.77
2019-02-25T21:54:46.969Z,51.87
2019-02-25T21:57:18.568Z,53.60
2019-02-25T21:59:50.143Z,49.07
2019-02-25T22:02:21.749Z,51.70
2019-02-25T22:04:54.371Z,55.50
2019-02-25T22:07:27.324Z,54.73
2019-02-25T22:09:59.250Z,61.33
2019-02-25T22:12:32.731Z,62.90
2019-02-25T22:15:04.245Z,53.90
2019-02-25T22:17:38.047Z,56.63
2019-02-25T22:20:14.344Z,60.50
2019-02-25T22:22:46.254Z,65.07
2019-02-25T22:25:18.425Z,61.33
2019-02-25T22:27:50.481Z,64.53
2019-02-25T22:30:22.500Z,58.13
2019-02-25T22:32:54.186Z,57.67
2019-02-25T22:35:25.916Z,57.20
2019-02-25T22:37:58.098Z,51.97
2019-02-25T22:40:32.181Z,55.97
2019-02-25T22:43:04.033Z,61.30
2019-02-25T22:45:37.563Z,53.17
2019-02-25T22:48:11.614Z,58.10
2019-02-25T22:50:42.019Z,57.60
2019-02-25T22:53:13.533Z,58.00
2019-02-25T22:55:47.315Z,49.43
2019-02-25T22:58:18.387Z,53.30
2019-02-25T23:00:51.705Z,56.13
2019-02-25T23:03:25.669Z,62.53
2019-02-25T23:05:59.240Z,58.63
2019-02-25T23:08:30.943Z,51.27
2019-02-25T23:11:03.431Z,50.60
2019-02-25T23:13:34.955Z,56.13
2019-02-25T23:16:07.595Z,57.43
2019-02-25T23:18:39.146Z,54.40
2019-02-25T23:21:11.125Z,56.33
2019-02-25T23:23:42.611Z,55.33
2019-02-25T23:26:14.889Z,56.40
2019-02-25T23:28:48.847Z,56.33
2019-02-25T23:31:20.624Z,64.03
2019-02-25T23:33:55.293Z,56.60
2019-02-25T23:36:26.770Z,65.20
2019-02-25T23:38:59.563Z,58.17
2019-02-25T23:41:34.389Z,53.03
2019-02-25T23:44:07.150Z,58.57
2019-02-25T23:46:40.021Z,55.40
2019-02-25T23:49:11.819Z,59.33
2019-02-25T23:51:43.740Z,56.00
2019-02-25T23:54:18.293Z,57.33
2019-02-25T23:56:50.239Z,56.60
2019-02-25T23:59:24.730Z,67.80
